AFL2960 URSS-USSS
Flight info
| Callsign | AFL2960 |
|---|---|
| Flight time | 2h 58m |
| Altitude | 33000 |
| Route | N0450F330 ADNET W79 NZ B145 ER G128 MOR R720 DAFOS P135 LOMBI |
| Aircraft | A321/M-VGDW/C |
Departure
| Time | 2026-05-05 05:40 |
|---|---|
| Airport | Sochi International Airport (URSS) |
Arrival
| Time | 2026-05-05 08:38 |
|---|---|
| Airport | Koltsovo Airport (USSS) |
| Time | Latitude | Longitude | Altitude | Speed | Heading |
|---|---|---|---|---|---|
| 2026-05-05 05:19 | 43.44790 | 39.94305 | 104 ft | 0 kts | 335° |
| 2026-05-05 05:32 | 43.44785 | 39.94308 | 104 ft | 2 kts | 334° |
| 2026-05-05 05:32 | 43.44771 | 39.94318 | 104 ft | 2 kts | 335° |
| 2026-05-05 05:32 | 43.44757 | 39.94327 | 104 ft | 2 kts | 334° |
| 2026-05-05 05:33 | 43.44743 | 39.94336 | 104 ft | 2 kts | 334° |
| 2026-05-05 05:33 | 43.44728 | 39.94345 | 104 ft | 2 kts | 334° |
| 2026-05-05 05:33 | 43.44714 | 39.94355 | 104 ft | 2 kts | 334° |
| 2026-05-05 05:33 | 43.44700 | 39.94364 | 104 ft | 2 kts | 335° |
| 2026-05-05 05:34 | 43.44687 | 39.94367 | 104 ft | 2 kts | 21° |
| 2026-05-05 05:34 | 43.44677 | 39.94356 | 104 ft | 2 kts | 65° |
| 2026-05-05 05:34 | 43.44671 | 39.94336 | 104 ft | 2 kts | 64° |
| 2026-05-05 05:34 | 43.44670 | 39.94333 | 104 ft | 0 kts | 65° |
| 2026-05-05 05:35 | 43.44675 | 39.94348 | 104 ft | 4 kts | 65° |
| 2026-05-05 05:35 | 43.44690 | 39.94396 | 104 ft | 7 kts | 67° |
| 2026-05-05 05:36 | 43.44715 | 39.94475 | 104 ft | 11 kts | 65° |
| 2026-05-05 05:36 | 43.44751 | 39.94582 | 104 ft | 14 kts | 64° |
| 2026-05-05 05:36 | 43.44799 | 39.94719 | 104 ft | 18 kts | 64° |
| 2026-05-05 05:36 | 43.44855 | 39.94882 | 104 ft | 19 kts | 64° |
| 2026-05-05 05:37 | 43.44915 | 39.95056 | 104 ft | 21 kts | 65° |
| 2026-05-05 05:37 | 43.44978 | 39.95241 | 104 ft | 22 kts | 65° |
| 2026-05-05 05:37 | 43.45037 | 39.95416 | 104 ft | 19 kts | 65° |
| 2026-05-05 05:37 | 43.45130 | 39.95547 | 104 ft | 20 kts | 27° |
| 2026-05-05 05:38 | 43.45237 | 39.95654 | 104 ft | 19 kts | 59° |
| 2026-05-05 05:38 | 43.45304 | 39.95819 | 104 ft | 20 kts | 78° |
| 2026-05-05 05:38 | 43.45240 | 39.95949 | 104 ft | 18 kts | 188° |
| 2026-05-05 05:38 | 43.45125 | 39.95877 | 104 ft | 17 kts | 209° |
| 2026-05-05 05:39 | 43.45038 | 39.95770 | 104 ft | 18 kts | 244° |
| 2026-05-05 05:39 | 43.44923 | 39.95436 | 104 ft | 73 kts | 244° |
| 2026-05-05 05:39 | 43.44608 | 39.94511 | 104 ft | 138 kts | 244° |
| 2026-05-05 05:39 | 43.44140 | 39.93135 | 335 ft | 167 kts | 244° |
| 2026-05-05 05:40 | 43.43795 | 39.91658 | 1157 ft | 161 kts | 256° |
| 2026-05-05 05:40 | 43.43547 | 39.90177 | 1697 ft | 161 kts | 257° |
| 2026-05-05 05:40 | 43.43296 | 39.88665 | 2059 ft | 161 kts | 257° |
| 2026-05-05 05:40 | 43.43045 | 39.87153 | 2409 ft | 163 kts | 257° |
| 2026-05-05 05:41 | 43.42792 | 39.85631 | 2787 ft | 163 kts | 257° |
| 2026-05-05 05:41 | 43.42540 | 39.84108 | 3129 ft | 164 kts | 257° |
| 2026-05-05 05:41 | 43.42273 | 39.82500 | 3293 ft | 183 kts | 257° |
| 2026-05-05 05:41 | 43.41972 | 39.80677 | 3385 ft | 210 kts | 257° |
| 2026-05-05 05:42 | 43.41627 | 39.78572 | 3441 ft | 243 kts | 257° |
| 2026-05-05 05:42 | 43.41237 | 39.76208 | 3816 ft | 262 kts | 257° |
| 2026-05-05 05:42 | 43.40838 | 39.73791 | 4767 ft | 261 kts | 257° |
| 2026-05-05 05:42 | 43.40426 | 39.71298 | 5527 ft | 266 kts | 257° |
| 2026-05-05 05:43 | 43.40012 | 39.68801 | 6313 ft | 269 kts | 257° |
| 2026-05-05 05:43 | 43.39725 | 39.66272 | 7041 ft | 274 kts | 270° |
| 2026-05-05 05:43 | 43.40130 | 39.63716 | 7760 ft | 277 kts | 294° |
| 2026-05-05 05:43 | 43.41274 | 39.61587 | 8438 ft | 281 kts | 318° |
| 2026-05-05 05:44 | 43.42963 | 39.60233 | 9119 ft | 283 kts | 337° |
| 2026-05-05 05:44 | 43.44798 | 39.59233 | 9818 ft | 286 kts | 338° |
| 2026-05-05 05:44 | 43.46672 | 39.58219 | 10286 ft | 298 kts | 338° |
| 2026-05-05 05:44 | 43.48680 | 39.57128 | 10371 ft | 321 kts | 338° |
| 2026-05-05 05:45 | 43.50829 | 39.55957 | 10498 ft | 341 kts | 338° |
| 2026-05-05 05:45 | 43.53038 | 39.54751 | 11173 ft | 341 kts | 338° |
| 2026-05-05 05:45 | 43.55251 | 39.53541 | 11764 ft | 344 kts | 338° |
| 2026-05-05 05:45 | 43.57489 | 39.52315 | 12357 ft | 347 kts | 338° |
| 2026-05-05 05:46 | 43.59742 | 39.51080 | 12897 ft | 350 kts | 339° |
| 2026-05-05 05:46 | 43.62106 | 39.50220 | 13397 ft | 354 kts | 352° |
| 2026-05-05 05:46 | 43.64575 | 39.50246 | 13924 ft | 357 kts | 8° |
| 2026-05-05 05:46 | 43.66980 | 39.51107 | 14465 ft | 358 kts | 17° |
| 2026-05-05 05:47 | 43.69376 | 39.52135 | 14920 ft | 362 kts | 18° |
| 2026-05-05 05:47 | 43.71782 | 39.53202 | 15440 ft | 364 kts | 18° |
| 2026-05-05 05:47 | 43.74203 | 39.54296 | 15892 ft | 368 kts | 19° |
| 2026-05-05 05:47 | 43.76611 | 39.55399 | 16380 ft | 370 kts | 19° |
| 2026-05-05 05:48 | 43.79060 | 39.56530 | 16837 ft | 373 kts | 19° |
| 2026-05-05 05:48 | 43.81526 | 39.57676 | 17304 ft | 375 kts | 19° |
| 2026-05-05 05:48 | 43.84011 | 39.58836 | 17765 ft | 378 kts | 19° |
| 2026-05-05 05:48 | 43.86517 | 39.60010 | 18211 ft | 380 kts | 19° |
| 2026-05-05 05:49 | 43.89026 | 39.61186 | 18692 ft | 382 kts | 20° |
| 2026-05-05 05:49 | 43.91547 | 39.62371 | 19171 ft | 383 kts | 20° |
| 2026-05-05 05:49 | 43.94078 | 39.63562 | 19613 ft | 385 kts | 20° |
| 2026-05-05 05:49 | 43.96626 | 39.64764 | 20054 ft | 387 kts | 20° |
| 2026-05-05 05:50 | 43.99174 | 39.65972 | 20484 ft | 388 kts | 21° |
| 2026-05-05 05:50 | 44.01738 | 39.67188 | 20904 ft | 390 kts | 21° |
| 2026-05-05 05:50 | 44.04315 | 39.68411 | 21311 ft | 392 kts | 21° |
| 2026-05-05 05:50 | 44.06907 | 39.69643 | 21694 ft | 394 kts | 21° |
| 2026-05-05 05:51 | 44.09502 | 39.70876 | 22076 ft | 395 kts | 22° |
| 2026-05-05 05:51 | 44.12107 | 39.72115 | 22463 ft | 396 kts | 22° |
| 2026-05-05 05:51 | 44.14691 | 39.73344 | 22817 ft | 398 kts | 22° |
| 2026-05-05 05:51 | 44.17316 | 39.74594 | 23173 ft | 400 kts | 22° |
| 2026-05-05 05:52 | 44.19987 | 39.75867 | 23536 ft | 401 kts | 22° |
| 2026-05-05 05:52 | 44.22631 | 39.77128 | 23870 ft | 402 kts | 23° |
| 2026-05-05 05:52 | 44.25282 | 39.78393 | 24248 ft | 402 kts | 23° |
| 2026-05-05 05:52 | 44.27897 | 39.79642 | 24568 ft | 404 kts | 23° |
| 2026-05-05 05:53 | 44.30564 | 39.80919 | 24849 ft | 406 kts | 23° |
| 2026-05-05 05:53 | 44.33259 | 39.82144 | 25136 ft | 410 kts | 20° |
| 2026-05-05 05:53 | 44.36080 | 39.82924 | 25397 ft | 417 kts | 12° |
| 2026-05-05 05:53 | 44.39000 | 39.83110 | 25672 ft | 424 kts | 3° |
| 2026-05-05 05:54 | 44.41965 | 39.82723 | 25916 ft | 429 kts | 358° |
| 2026-05-05 05:54 | 44.44940 | 39.82206 | 26181 ft | 431 kts | 358° |
| 2026-05-05 05:54 | 44.47924 | 39.81671 | 26386 ft | 434 kts | 358° |
| 2026-05-05 05:54 | 44.50918 | 39.81125 | 26648 ft | 435 kts | 357° |
| 2026-05-05 05:55 | 44.53925 | 39.80569 | 26846 ft | 437 kts | 357° |
| 2026-05-05 05:55 | 44.56940 | 39.80005 | 27108 ft | 438 kts | 357° |
| 2026-05-05 05:55 | 44.59966 | 39.79435 | 27314 ft | 440 kts | 357° |
| 2026-05-05 05:55 | 44.63005 | 39.78859 | 27502 ft | 441 kts | 357° |
| 2026-05-05 05:56 | 44.66051 | 39.78277 | 27731 ft | 442 kts | 357° |
| 2026-05-05 05:56 | 44.69110 | 39.77691 | 27926 ft | 444 kts | 357° |
| 2026-05-05 05:56 | 44.72136 | 39.77109 | 28121 ft | 445 kts | 357° |
| 2026-05-05 05:56 | 44.75245 | 39.76508 | 28329 ft | 446 kts | 357° |
| 2026-05-05 05:57 | 44.78287 | 39.75919 | 28516 ft | 447 kts | 357° |
| 2026-05-05 05:57 | 44.81377 | 39.75319 | 28707 ft | 449 kts | 357° |
| 2026-05-05 05:57 | 44.84473 | 39.74717 | 28889 ft | 450 kts | 357° |
| 2026-05-05 05:57 | 44.87576 | 39.74112 | 29070 ft | 451 kts | 357° |
| 2026-05-05 05:58 | 44.90691 | 39.73504 | 29247 ft | 452 kts | 357° |
| 2026-05-05 05:58 | 44.93808 | 39.72894 | 29451 ft | 452 kts | 357° |
| 2026-05-05 05:58 | 44.96929 | 39.72283 | 29570 ft | 454 kts | 357° |
| 2026-05-05 05:58 | 45.00061 | 39.71668 | 29782 ft | 454 kts | 357° |
| 2026-05-05 05:59 | 45.03193 | 39.71052 | 29921 ft | 455 kts | 356° |
| 2026-05-05 05:59 | 45.06333 | 39.70434 | 30107 ft | 455 kts | 356° |
| 2026-05-05 05:59 | 45.09476 | 39.69814 | 30267 ft | 456 kts | 356° |
| 2026-05-05 05:59 | 45.12625 | 39.69193 | 30432 ft | 457 kts | 356° |
| 2026-05-05 06:00 | 45.15768 | 39.68572 | 30610 ft | 457 kts | 356° |
| 2026-05-05 06:00 | 45.18928 | 39.68274 | 30725 ft | 453 kts | 6° |
| 2026-05-05 06:00 | 45.22029 | 39.68741 | 30918 ft | 446 kts | 15° |
| 2026-05-05 06:00 | 45.24999 | 39.69945 | 31027 ft | 442 kts | 25° |
| 2026-05-05 06:01 | 45.27819 | 39.71654 | 31236 ft | 440 kts | 27° |
| 2026-05-05 06:01 | 45.30623 | 39.73403 | 31418 ft | 439 kts | 27° |
| 2026-05-05 06:01 | 45.33378 | 39.75136 | 31610 ft | 439 kts | 27° |
| 2026-05-05 06:01 | 45.36168 | 39.76900 | 31806 ft | 438 kts | 27° |
| 2026-05-05 06:02 | 45.38948 | 39.78667 | 31992 ft | 438 kts | 27° |
| 2026-05-05 06:02 | 45.41724 | 39.80441 | 32198 ft | 437 kts | 28° |
| 2026-05-05 06:02 | 45.44493 | 39.82216 | 32386 ft | 436 kts | 28° |
| 2026-05-05 06:02 | 45.47261 | 39.83999 | 32555 ft | 436 kts | 28° |
| 2026-05-05 06:03 | 45.50013 | 39.85786 | 32780 ft | 434 kts | 28° |
| 2026-05-05 06:03 | 45.52764 | 39.87579 | 32914 ft | 436 kts | 28° |
| 2026-05-05 06:03 | 45.58283 | 39.91186 | 32965 ft | 435 kts | 28° |
| 2026-05-05 06:04 | 45.63785 | 39.94795 | 32971 ft | 435 kts | 28° |
| 2026-05-05 06:04 | 45.69298 | 39.98426 | 32971 ft | 439 kts | 28° |
| 2026-05-05 06:05 | 45.74901 | 40.02126 | 32973 ft | 446 kts | 28° |
| 2026-05-05 06:05 | 45.80530 | 40.05849 | 32974 ft | 446 kts | 28° |
| 2026-05-05 06:06 | 45.86132 | 40.09642 | 32975 ft | 445 kts | 30° |
| 2026-05-05 06:06 | 45.91621 | 40.13735 | 32975 ft | 444 kts | 30° |
| 2026-05-05 06:07 | 45.97071 | 40.17817 | 32976 ft | 444 kts | 30° |
| 2026-05-05 06:07 | 46.02591 | 40.21956 | 32977 ft | 444 kts | 30° |
| 2026-05-05 06:08 | 46.08038 | 40.26046 | 32977 ft | 444 kts | 30° |
| 2026-05-05 06:08 | 46.13517 | 40.30166 | 32978 ft | 444 kts | 30° |
| 2026-05-05 06:09 | 46.18994 | 40.34292 | 32978 ft | 444 kts | 30° |
| 2026-05-05 06:09 | 46.24474 | 40.38427 | 32979 ft | 444 kts | 30° |
| 2026-05-05 06:10 | 46.29952 | 40.42569 | 32979 ft | 445 kts | 30° |
| 2026-05-05 06:10 | 46.34507 | 40.46024 | 32980 ft | 445 kts | 31° |
| 2026-05-05 06:11 | 46.39889 | 40.50425 | 32980 ft | 444 kts | 32° |
| 2026-05-05 06:11 | 46.45255 | 40.54864 | 32982 ft | 444 kts | 32° |
| 2026-05-05 06:12 | 46.50621 | 40.59304 | 32983 ft | 444 kts | 32° |
| 2026-05-05 06:12 | 46.55991 | 40.63751 | 32984 ft | 444 kts | 32° |
| 2026-05-05 06:13 | 46.61590 | 40.67572 | 32986 ft | 449 kts | 20° |
| 2026-05-05 06:13 | 46.67572 | 40.70186 | 32985 ft | 449 kts | 19° |
| 2026-05-05 06:14 | 46.73563 | 40.72768 | 32986 ft | 449 kts | 19° |
| 2026-05-05 06:14 | 46.79555 | 40.75343 | 32986 ft | 449 kts | 19° |
| 2026-05-05 06:15 | 46.85545 | 40.77914 | 32987 ft | 448 kts | 19° |
| 2026-05-05 06:15 | 46.91472 | 40.80577 | 32988 ft | 448 kts | 20° |
| 2026-05-05 06:16 | 46.97430 | 40.83291 | 32988 ft | 448 kts | 20° |
| 2026-05-05 06:16 | 47.03387 | 40.86002 | 32989 ft | 448 kts | 20° |
| 2026-05-05 06:17 | 47.09340 | 40.88712 | 32989 ft | 448 kts | 20° |
| 2026-05-05 06:17 | 47.15293 | 40.91424 | 32990 ft | 448 kts | 20° |
| 2026-05-05 06:18 | 47.21244 | 40.94140 | 32991 ft | 448 kts | 19° |
| 2026-05-05 06:18 | 47.27195 | 40.96859 | 32991 ft | 448 kts | 20° |
| 2026-05-05 06:19 | 47.33143 | 40.99580 | 32992 ft | 448 kts | 20° |
| 2026-05-05 06:19 | 47.39088 | 41.02306 | 32993 ft | 447 kts | 20° |
| 2026-05-05 06:20 | 47.45030 | 41.05056 | 32993 ft | 447 kts | 20° |
| 2026-05-05 06:20 | 47.50967 | 41.07813 | 32994 ft | 447 kts | 20° |
| 2026-05-05 06:21 | 47.56906 | 41.10571 | 32995 ft | 447 kts | 20° |
| 2026-05-05 06:21 | 47.62529 | 41.14321 | 32997 ft | 442 kts | 33° |
| 2026-05-05 06:22 | 47.67777 | 41.19100 | 32996 ft | 442 kts | 34° |
| 2026-05-05 06:22 | 47.72980 | 41.23875 | 32997 ft | 443 kts | 34° |
| 2026-05-05 06:23 | 47.78229 | 41.28712 | 32998 ft | 443 kts | 34° |
| 2026-05-05 06:23 | 47.83475 | 41.33532 | 32999 ft | 443 kts | 33° |
| 2026-05-05 06:24 | 47.88738 | 41.38298 | 32999 ft | 443 kts | 33° |
| 2026-05-05 06:24 | 47.93996 | 41.43067 | 33000 ft | 442 kts | 33° |
| 2026-05-05 06:25 | 47.99253 | 41.47845 | 33001 ft | 442 kts | 33° |
| 2026-05-05 06:25 | 48.04513 | 41.52639 | 33002 ft | 443 kts | 33° |
| 2026-05-05 06:26 | 48.09773 | 41.57439 | 33002 ft | 442 kts | 33° |
| 2026-05-05 06:26 | 48.15024 | 41.62243 | 33003 ft | 443 kts | 33° |
| 2026-05-05 06:27 | 48.22906 | 41.69476 | 33005 ft | 443 kts | 33° |
| 2026-05-05 06:28 | 48.28153 | 41.74306 | 33005 ft | 442 kts | 33° |
| 2026-05-05 06:28 | 48.33393 | 41.79144 | 33005 ft | 442 kts | 34° |
| 2026-05-05 06:29 | 48.38260 | 41.84754 | 33006 ft | 441 kts | 40° |
| 2026-05-05 06:29 | 48.43046 | 41.90540 | 33006 ft | 441 kts | 40° |
| 2026-05-05 06:30 | 48.47820 | 41.96322 | 33007 ft | 441 kts | 40° |
| 2026-05-05 06:30 | 48.52603 | 42.02127 | 33007 ft | 442 kts | 40° |
| 2026-05-05 06:31 | 48.57356 | 42.07908 | 33008 ft | 442 kts | 40° |
| 2026-05-05 06:31 | 48.62149 | 42.13748 | 33009 ft | 443 kts | 40° |
| 2026-05-05 06:32 | 48.66941 | 42.19600 | 33011 ft | 443 kts | 40° |
| 2026-05-05 06:32 | 48.71736 | 42.25471 | 33012 ft | 443 kts | 40° |
| 2026-05-05 06:33 | 48.76534 | 42.31358 | 33012 ft | 444 kts | 40° |
| 2026-05-05 06:33 | 48.81333 | 42.37260 | 33012 ft | 444 kts | 40° |
| 2026-05-05 06:34 | 48.86138 | 42.43184 | 33012 ft | 445 kts | 40° |
| 2026-05-05 06:34 | 48.90941 | 42.49119 | 33012 ft | 446 kts | 40° |
| 2026-05-05 06:35 | 48.95745 | 42.55082 | 33013 ft | 446 kts | 40° |
| 2026-05-05 06:35 | 49.00529 | 42.61100 | 33013 ft | 446 kts | 40° |
| 2026-05-05 06:36 | 49.05296 | 42.67092 | 33013 ft | 447 kts | 40° |
| 2026-05-05 06:36 | 49.10126 | 42.73158 | 33014 ft | 447 kts | 40° |
| 2026-05-05 06:37 | 49.14899 | 42.79155 | 33014 ft | 448 kts | 40° |
| 2026-05-05 06:37 | 49.19709 | 42.85203 | 33014 ft | 448 kts | 40° |
| 2026-05-05 06:38 | 49.24520 | 42.91260 | 33014 ft | 448 kts | 40° |
| 2026-05-05 06:38 | 49.29339 | 42.97337 | 33015 ft | 448 kts | 40° |
| 2026-05-05 06:39 | 49.34156 | 43.03422 | 33015 ft | 449 kts | 40° |
| 2026-05-05 06:39 | 49.38973 | 43.09521 | 33015 ft | 449 kts | 40° |
| 2026-05-05 06:40 | 49.43800 | 43.15644 | 33015 ft | 449 kts | 40° |
| 2026-05-05 06:40 | 49.48591 | 43.21735 | 33015 ft | 450 kts | 40° |
| 2026-05-05 06:41 | 49.53416 | 43.27883 | 33015 ft | 451 kts | 40° |
| 2026-05-05 06:41 | 49.58243 | 43.34050 | 33014 ft | 451 kts | 40° |
| 2026-05-05 06:42 | 49.63073 | 43.40235 | 33014 ft | 452 kts | 40° |
| 2026-05-05 06:42 | 49.67913 | 43.46449 | 33014 ft | 452 kts | 40° |
| 2026-05-05 06:43 | 49.72746 | 43.52670 | 33014 ft | 452 kts | 40° |
| 2026-05-05 06:43 | 49.77588 | 43.58919 | 33013 ft | 453 kts | 40° |
| 2026-05-05 06:44 | 49.82424 | 43.65178 | 33013 ft | 453 kts | 40° |
| 2026-05-05 06:44 | 49.87269 | 43.71465 | 33012 ft | 454 kts | 40° |
| 2026-05-05 06:45 | 49.92112 | 43.77766 | 33012 ft | 454 kts | 40° |
| 2026-05-05 06:45 | 49.96956 | 43.84085 | 33014 ft | 455 kts | 40° |
| 2026-05-05 06:46 | 50.01795 | 43.90414 | 33013 ft | 455 kts | 40° |
| 2026-05-05 06:46 | 50.06637 | 43.96765 | 33013 ft | 455 kts | 40° |
| 2026-05-05 06:47 | 50.11443 | 44.03085 | 33012 ft | 455 kts | 40° |
| 2026-05-05 06:47 | 50.16275 | 44.09457 | 33012 ft | 455 kts | 40° |
| 2026-05-05 06:48 | 50.21074 | 44.15880 | 33011 ft | 453 kts | 41° |
| 2026-05-05 06:48 | 50.25810 | 44.22380 | 33011 ft | 453 kts | 41° |
| 2026-05-05 06:49 | 50.30564 | 44.28876 | 33010 ft | 453 kts | 41° |
| 2026-05-05 06:49 | 50.35292 | 44.35312 | 33008 ft | 453 kts | 40° |
| 2026-05-05 06:50 | 50.40051 | 44.41777 | 33004 ft | 453 kts | 40° |
| 2026-05-05 06:50 | 50.44812 | 44.48237 | 33003 ft | 453 kts | 40° |
| 2026-05-05 06:51 | 50.49575 | 44.54699 | 33002 ft | 452 kts | 40° |
| 2026-05-05 06:51 | 50.54335 | 44.61162 | 33001 ft | 452 kts | 40° |
| 2026-05-05 06:52 | 50.59088 | 44.67621 | 33000 ft | 451 kts | 40° |
| 2026-05-05 06:52 | 50.63834 | 44.74080 | 32999 ft | 451 kts | 40° |
| 2026-05-05 06:53 | 50.68583 | 44.80557 | 32991 ft | 451 kts | 40° |
| 2026-05-05 06:53 | 50.73328 | 44.87040 | 32984 ft | 451 kts | 40° |
| 2026-05-05 06:54 | 50.78067 | 44.93529 | 32981 ft | 451 kts | 40° |
| 2026-05-05 06:54 | 50.82769 | 44.99982 | 32979 ft | 450 kts | 40° |
| 2026-05-05 06:55 | 50.87493 | 45.06481 | 32978 ft | 450 kts | 40° |
| 2026-05-05 06:55 | 50.92212 | 45.12990 | 32976 ft | 449 kts | 40° |
| 2026-05-05 06:56 | 50.96928 | 45.19515 | 32973 ft | 450 kts | 40° |
| 2026-05-05 06:56 | 51.01631 | 45.26073 | 32972 ft | 449 kts | 41° |
| 2026-05-05 06:57 | 51.06272 | 45.32713 | 32970 ft | 449 kts | 41° |
| 2026-05-05 06:57 | 51.10915 | 45.39342 | 32968 ft | 448 kts | 41° |
| 2026-05-05 06:58 | 51.15527 | 45.45915 | 32967 ft | 447 kts | 41° |
| 2026-05-05 06:58 | 51.20165 | 45.52521 | 32965 ft | 447 kts | 41° |
| 2026-05-05 06:59 | 51.24796 | 45.59116 | 32963 ft | 446 kts | 41° |
| 2026-05-05 06:59 | 51.28674 | 45.64642 | 32961 ft | 446 kts | 41° |
| 2026-05-05 07:00 | 51.33263 | 45.71189 | 32960 ft | 445 kts | 41° |
| 2026-05-05 07:00 | 51.37883 | 45.77791 | 32958 ft | 444 kts | 41° |
| 2026-05-05 07:01 | 51.42481 | 45.84375 | 32956 ft | 443 kts | 41° |
| 2026-05-05 07:01 | 51.47074 | 45.90965 | 32954 ft | 442 kts | 41° |
| 2026-05-05 07:02 | 51.51654 | 45.97552 | 32960 ft | 442 kts | 41° |
| 2026-05-05 07:02 | 51.56233 | 46.04150 | 32963 ft | 442 kts | 40° |
| 2026-05-05 07:03 | 51.60854 | 46.10659 | 32962 ft | 442 kts | 40° |
| 2026-05-05 07:03 | 51.65487 | 46.17153 | 32961 ft | 441 kts | 40° |
| 2026-05-05 07:04 | 51.70119 | 46.23637 | 32960 ft | 441 kts | 40° |
| 2026-05-05 07:04 | 51.74750 | 46.30120 | 32959 ft | 441 kts | 40° |
| 2026-05-05 07:05 | 51.79387 | 46.36615 | 32959 ft | 441 kts | 40° |
| 2026-05-05 07:05 | 51.83665 | 46.43716 | 32958 ft | 444 kts | 51° |
| 2026-05-05 07:06 | 51.87399 | 46.51677 | 32955 ft | 444 kts | 52° |
| 2026-05-05 07:06 | 51.91103 | 46.59624 | 32955 ft | 445 kts | 52° |
| 2026-05-05 07:07 | 51.94862 | 46.67609 | 32954 ft | 446 kts | 51° |
| 2026-05-05 07:07 | 51.98662 | 46.75553 | 32955 ft | 446 kts | 51° |
| 2026-05-05 07:08 | 52.02455 | 46.83497 | 32952 ft | 441 kts | 51° |
| 2026-05-05 07:08 | 52.06204 | 46.91366 | 32952 ft | 442 kts | 51° |
| 2026-05-05 07:09 | 52.09961 | 46.99268 | 32952 ft | 442 kts | 51° |
| 2026-05-05 07:09 | 52.13718 | 47.07191 | 32951 ft | 442 kts | 51° |
| 2026-05-05 07:10 | 52.17470 | 47.15148 | 32951 ft | 443 kts | 51° |
| 2026-05-05 07:10 | 52.21195 | 47.23150 | 32950 ft | 443 kts | 51° |
| 2026-05-05 07:11 | 52.24926 | 47.31165 | 32950 ft | 444 kts | 51° |
| 2026-05-05 07:11 | 52.28659 | 47.39190 | 32951 ft | 444 kts | 51° |
| 2026-05-05 07:12 | 52.32396 | 47.47234 | 32952 ft | 444 kts | 51° |
| 2026-05-05 07:12 | 52.36114 | 47.55303 | 32951 ft | 445 kts | 51° |
| 2026-05-05 07:13 | 52.39836 | 47.63398 | 32951 ft | 445 kts | 51° |
| 2026-05-05 07:13 | 52.43563 | 47.71509 | 32950 ft | 445 kts | 51° |
| 2026-05-05 07:14 | 52.47289 | 47.79627 | 32949 ft | 445 kts | 51° |
| 2026-05-05 07:14 | 52.51007 | 47.87745 | 32949 ft | 445 kts | 51° |
| 2026-05-05 07:15 | 52.54700 | 47.95826 | 32948 ft | 445 kts | 51° |
| 2026-05-05 07:15 | 52.58409 | 48.03961 | 32948 ft | 446 kts | 51° |
| 2026-05-05 07:16 | 52.62110 | 48.12145 | 32947 ft | 446 kts | 51° |
| 2026-05-05 07:16 | 52.65786 | 48.20361 | 32947 ft | 445 kts | 51° |
| 2026-05-05 07:17 | 52.69460 | 48.28568 | 32946 ft | 444 kts | 51° |
| 2026-05-05 07:17 | 52.73132 | 48.36775 | 32946 ft | 444 kts | 51° |
| 2026-05-05 07:18 | 52.76801 | 48.44983 | 32947 ft | 444 kts | 51° |
| 2026-05-05 07:18 | 52.80463 | 48.53190 | 32947 ft | 443 kts | 51° |
| 2026-05-05 07:19 | 52.84119 | 48.61400 | 32946 ft | 443 kts | 51° |
| 2026-05-05 07:19 | 52.87771 | 48.69623 | 32946 ft | 443 kts | 51° |
| 2026-05-05 07:20 | 52.91420 | 48.77857 | 32945 ft | 443 kts | 51° |
| 2026-05-05 07:20 | 52.95048 | 48.86121 | 32956 ft | 443 kts | 52° |
| 2026-05-05 07:21 | 52.98642 | 48.94432 | 32959 ft | 443 kts | 52° |
| 2026-05-05 07:21 | 53.02220 | 49.02691 | 32959 ft | 443 kts | 52° |
| 2026-05-05 07:22 | 53.05822 | 49.11005 | 32958 ft | 443 kts | 52° |
| 2026-05-05 07:22 | 53.09413 | 49.19319 | 32960 ft | 443 kts | 52° |
| 2026-05-05 07:23 | 53.12995 | 49.27665 | 32960 ft | 442 kts | 51° |
| 2026-05-05 07:23 | 53.16571 | 49.35996 | 32960 ft | 442 kts | 51° |
| 2026-05-05 07:24 | 53.20145 | 49.44330 | 32960 ft | 441 kts | 51° |
| 2026-05-05 07:24 | 53.23714 | 49.52663 | 32961 ft | 441 kts | 51° |
| 2026-05-05 07:25 | 53.27272 | 49.60986 | 32961 ft | 440 kts | 51° |
| 2026-05-05 07:25 | 53.30820 | 49.69307 | 32961 ft | 439 kts | 51° |
| 2026-05-05 07:26 | 53.34355 | 49.77622 | 32962 ft | 438 kts | 51° |
| 2026-05-05 07:26 | 53.37877 | 49.85927 | 32962 ft | 437 kts | 51° |
| 2026-05-05 07:27 | 53.41386 | 49.94228 | 32963 ft | 436 kts | 51° |
| 2026-05-05 07:27 | 53.44883 | 50.02529 | 32963 ft | 437 kts | 51° |
| 2026-05-05 07:28 | 53.48372 | 50.10829 | 32963 ft | 436 kts | 51° |
| 2026-05-05 07:28 | 53.51853 | 50.19193 | 32963 ft | 437 kts | 52° |
| 2026-05-05 07:29 | 53.55277 | 50.27632 | 32963 ft | 437 kts | 52° |
| 2026-05-05 07:29 | 53.58710 | 50.36069 | 32963 ft | 437 kts | 52° |
| 2026-05-05 07:30 | 53.62157 | 50.44526 | 32962 ft | 438 kts | 52° |
| 2026-05-05 07:30 | 53.67347 | 50.57252 | 32961 ft | 440 kts | 52° |
| 2026-05-05 07:31 | 53.70792 | 50.65711 | 32961 ft | 441 kts | 52° |
| 2026-05-05 07:31 | 53.74266 | 50.74255 | 32960 ft | 442 kts | 52° |
| 2026-05-05 07:32 | 53.77753 | 50.82848 | 32958 ft | 443 kts | 52° |
| 2026-05-05 07:32 | 53.81244 | 50.91471 | 32957 ft | 445 kts | 52° |
| 2026-05-05 07:33 | 53.84740 | 51.00131 | 32956 ft | 446 kts | 52° |
| 2026-05-05 07:33 | 53.88244 | 51.08830 | 32955 ft | 447 kts | 52° |
| 2026-05-05 07:34 | 53.91750 | 51.17562 | 32950 ft | 448 kts | 52° |
| 2026-05-05 07:34 | 53.95258 | 51.26324 | 32952 ft | 449 kts | 52° |
| 2026-05-05 07:35 | 53.98765 | 51.35112 | 32951 ft | 450 kts | 52° |
| 2026-05-05 07:35 | 54.02368 | 51.43732 | 32949 ft | 442 kts | 49° |
| 2026-05-05 07:36 | 54.06144 | 51.51998 | 32948 ft | 444 kts | 49° |
| 2026-05-05 07:36 | 54.09941 | 51.60250 | 32946 ft | 445 kts | 48° |
| 2026-05-05 07:37 | 54.13773 | 51.68560 | 32944 ft | 446 kts | 49° |
| 2026-05-05 07:37 | 54.17614 | 51.76887 | 32942 ft | 447 kts | 49° |
| 2026-05-05 07:38 | 54.21455 | 51.85217 | 32940 ft | 447 kts | 49° |
| 2026-05-05 07:38 | 54.25301 | 51.93569 | 32939 ft | 447 kts | 49° |
| 2026-05-05 07:39 | 54.29147 | 52.01935 | 32933 ft | 447 kts | 49° |
| 2026-05-05 07:39 | 54.32994 | 52.10320 | 32933 ft | 447 kts | 49° |
| 2026-05-05 07:40 | 54.36830 | 52.18703 | 32937 ft | 447 kts | 49° |
| 2026-05-05 07:40 | 54.40639 | 52.27050 | 32936 ft | 447 kts | 49° |
| 2026-05-05 07:41 | 54.44430 | 52.35504 | 32935 ft | 447 kts | 49° |
| 2026-05-05 07:41 | 54.48196 | 52.44008 | 32934 ft | 446 kts | 49° |
| 2026-05-05 07:42 | 54.51964 | 52.52498 | 32933 ft | 446 kts | 49° |
| 2026-05-05 07:42 | 54.55733 | 52.60986 | 32932 ft | 446 kts | 49° |
| 2026-05-05 07:43 | 54.59502 | 52.69478 | 32931 ft | 446 kts | 49° |
| 2026-05-05 07:43 | 54.63276 | 52.77991 | 32930 ft | 446 kts | 49° |
| 2026-05-05 07:44 | 54.66508 | 52.87205 | 32931 ft | 450 kts | 58° |
| 2026-05-05 07:44 | 54.69533 | 52.96699 | 32930 ft | 451 kts | 58° |
| 2026-05-05 07:45 | 54.72556 | 53.06209 | 32930 ft | 452 kts | 58° |
| 2026-05-05 07:45 | 54.75582 | 53.15744 | 32930 ft | 452 kts | 58° |
| 2026-05-05 07:46 | 54.78591 | 53.25251 | 32925 ft | 453 kts | 58° |
| 2026-05-05 07:46 | 54.81614 | 53.34835 | 32924 ft | 453 kts | 58° |
| 2026-05-05 07:47 | 54.84622 | 53.44453 | 32925 ft | 453 kts | 58° |
| 2026-05-05 07:47 | 54.87124 | 53.52456 | 32925 ft | 454 kts | 58° |
| 2026-05-05 07:48 | 54.90136 | 53.62095 | 32926 ft | 453 kts | 58° |
| 2026-05-05 07:48 | 54.93129 | 53.71744 | 32928 ft | 453 kts | 58° |
| 2026-05-05 07:49 | 54.96120 | 53.81401 | 32929 ft | 453 kts | 58° |
| 2026-05-05 07:49 | 54.99110 | 53.91063 | 32930 ft | 453 kts | 58° |
| 2026-05-05 07:50 | 55.02093 | 54.00718 | 32934 ft | 452 kts | 58° |
| 2026-05-05 07:50 | 55.05095 | 54.10438 | 32936 ft | 457 kts | 59° |
| 2026-05-05 07:51 | 55.08102 | 54.20217 | 32937 ft | 457 kts | 59° |
| 2026-05-05 07:51 | 55.11098 | 54.29990 | 32939 ft | 457 kts | 59° |
| 2026-05-05 07:52 | 55.14090 | 54.39781 | 32940 ft | 456 kts | 59° |
| 2026-05-05 07:52 | 55.17075 | 54.49581 | 32941 ft | 456 kts | 59° |
| 2026-05-05 07:53 | 55.20022 | 54.59434 | 32943 ft | 457 kts | 60° |
| 2026-05-05 07:53 | 55.22946 | 54.69336 | 32944 ft | 458 kts | 60° |
| 2026-05-05 07:54 | 55.25876 | 54.79241 | 32945 ft | 458 kts | 60° |
| 2026-05-05 07:54 | 55.28787 | 54.89111 | 32946 ft | 459 kts | 60° |
| 2026-05-05 07:55 | 55.31713 | 54.99097 | 32947 ft | 460 kts | 60° |
| 2026-05-05 07:55 | 55.34640 | 55.09079 | 32948 ft | 460 kts | 60° |
| 2026-05-05 07:56 | 55.37573 | 55.19091 | 32948 ft | 461 kts | 60° |
| 2026-05-05 07:56 | 55.40498 | 55.29132 | 32948 ft | 461 kts | 61° |
| 2026-05-05 07:57 | 55.43412 | 55.39217 | 32949 ft | 462 kts | 61° |
| 2026-05-05 07:57 | 55.46325 | 55.49298 | 32949 ft | 462 kts | 61° |
| 2026-05-05 07:58 | 55.49241 | 55.59395 | 32948 ft | 461 kts | 61° |
| 2026-05-05 07:58 | 55.52149 | 55.69489 | 32948 ft | 462 kts | 62° |
| 2026-05-05 07:59 | 55.55054 | 55.79593 | 32948 ft | 461 kts | 62° |
| 2026-05-05 07:59 | 55.57958 | 55.89723 | 32947 ft | 461 kts | 62° |
| 2026-05-05 08:00 | 55.60830 | 55.99774 | 32946 ft | 461 kts | 62° |
| 2026-05-05 08:00 | 55.63717 | 56.09910 | 32945 ft | 462 kts | 62° |
| 2026-05-05 08:01 | 55.66596 | 56.20060 | 32945 ft | 461 kts | 62° |
| 2026-05-05 08:01 | 55.69472 | 56.30236 | 32942 ft | 462 kts | 62° |
| 2026-05-05 08:02 | 55.72343 | 56.40439 | 32939 ft | 463 kts | 62° |
| 2026-05-05 08:02 | 55.75212 | 56.50671 | 32937 ft | 463 kts | 62° |
| 2026-05-05 08:03 | 55.78074 | 56.60926 | 32935 ft | 464 kts | 62° |
| 2026-05-05 08:03 | 55.80931 | 56.71205 | 32933 ft | 464 kts | 62° |
| 2026-05-05 08:04 | 55.83718 | 56.81549 | 32931 ft | 464 kts | 63° |
| 2026-05-05 08:04 | 55.86466 | 56.91937 | 32929 ft | 464 kts | 63° |
| 2026-05-05 08:05 | 55.89231 | 57.02331 | 32926 ft | 464 kts | 63° |
| 2026-05-05 08:05 | 55.92001 | 57.12711 | 32924 ft | 464 kts | 63° |
| 2026-05-05 08:06 | 55.94760 | 57.23031 | 32922 ft | 462 kts | 63° |
| 2026-05-05 08:06 | 55.97516 | 57.33397 | 32920 ft | 462 kts | 63° |
| 2026-05-05 08:07 | 56.00244 | 57.43786 | 32917 ft | 461 kts | 63° |
| 2026-05-05 08:07 | 56.02951 | 57.54078 | 32914 ft | 451 kts | 63° |
| 2026-05-05 08:08 | 56.05599 | 57.64146 | 32913 ft | 447 kts | 63° |
| 2026-05-05 08:08 | 56.08249 | 57.74228 | 32494 ft | 447 kts | 63° |
| 2026-05-05 08:09 | 56.09586 | 57.79319 | 31380 ft | 456 kts | 63° |
| 2026-05-05 08:09 | 56.10936 | 57.84464 | 30831 ft | 450 kts | 63° |
| 2026-05-05 08:09 | 56.12252 | 57.89489 | 30249 ft | 445 kts | 63° |
| 2026-05-05 08:09 | 56.13542 | 57.94476 | 29825 ft | 436 kts | 63° |
| 2026-05-05 08:10 | 56.14785 | 57.99348 | 29110 ft | 435 kts | 63° |
| 2026-05-05 08:10 | 56.16030 | 58.04236 | 28578 ft | 428 kts | 63° |
| 2026-05-05 08:10 | 56.17265 | 58.09079 | 28009 ft | 423 kts | 63° |
| 2026-05-05 08:10 | 56.18487 | 58.13869 | 27362 ft | 421 kts | 63° |
| 2026-05-05 08:11 | 56.19695 | 58.18602 | 26813 ft | 415 kts | 63° |
| 2026-05-05 08:11 | 56.20894 | 58.23302 | 26262 ft | 411 kts | 63° |
| 2026-05-05 08:11 | 56.22078 | 58.27944 | 25689 ft | 407 kts | 63° |
| 2026-05-05 08:11 | 56.23244 | 58.32522 | 25277 ft | 399 kts | 63° |
| 2026-05-05 08:12 | 56.24388 | 58.37017 | 24889 ft | 391 kts | 63° |
| 2026-05-05 08:12 | 56.25508 | 58.41429 | 24508 ft | 384 kts | 63° |
| 2026-05-05 08:12 | 56.26607 | 58.45760 | 24134 ft | 377 kts | 63° |
| 2026-05-05 08:12 | 56.27686 | 58.50023 | 23768 ft | 371 kts | 64° |
| 2026-05-05 08:13 | 56.28743 | 58.54220 | 23406 ft | 365 kts | 64° |
| 2026-05-05 08:13 | 56.29772 | 58.58360 | 23051 ft | 360 kts | 64° |
| 2026-05-05 08:13 | 56.30792 | 58.62445 | 22686 ft | 355 kts | 64° |
| 2026-05-05 08:13 | 56.31801 | 58.66474 | 22342 ft | 351 kts | 64° |
| 2026-05-05 08:14 | 56.32799 | 58.70457 | 22005 ft | 346 kts | 64° |
| 2026-05-05 08:14 | 56.33787 | 58.74398 | 21672 ft | 343 kts | 64° |
| 2026-05-05 08:14 | 56.34767 | 58.78304 | 21340 ft | 341 kts | 64° |
| 2026-05-05 08:14 | 56.35741 | 58.82194 | 21010 ft | 340 kts | 64° |
| 2026-05-05 08:15 | 56.36713 | 58.86075 | 20685 ft | 338 kts | 64° |
| 2026-05-05 08:15 | 56.37677 | 58.89932 | 20363 ft | 337 kts | 64° |
| 2026-05-05 08:15 | 56.38635 | 58.93772 | 20042 ft | 335 kts | 64° |
| 2026-05-05 08:15 | 56.39588 | 58.97596 | 19726 ft | 333 kts | 64° |
| 2026-05-05 08:16 | 56.40537 | 59.01409 | 19409 ft | 331 kts | 64° |
| 2026-05-05 08:16 | 56.41478 | 59.05197 | 19097 ft | 330 kts | 64° |
| 2026-05-05 08:16 | 56.42412 | 59.08964 | 18786 ft | 328 kts | 64° |
| 2026-05-05 08:16 | 56.43280 | 59.12765 | 18476 ft | 327 kts | 69° |
| 2026-05-05 08:17 | 56.43894 | 59.16708 | 18175 ft | 326 kts | 76° |
| 2026-05-05 08:17 | 56.44239 | 59.20753 | 17874 ft | 326 kts | 82° |
| 2026-05-05 08:17 | 56.44480 | 59.24813 | 17567 ft | 324 kts | 82° |
| 2026-05-05 08:17 | 56.44707 | 59.28857 | 17263 ft | 323 kts | 83° |
| 2026-05-05 08:18 | 56.44926 | 59.32879 | 16961 ft | 321 kts | 83° |
| 2026-05-05 08:18 | 56.45139 | 59.36886 | 16660 ft | 319 kts | 83° |
| 2026-05-05 08:18 | 56.45345 | 59.40829 | 16364 ft | 318 kts | 83° |
| 2026-05-05 08:18 | 56.45549 | 59.44798 | 16066 ft | 316 kts | 83° |
| 2026-05-05 08:19 | 56.45750 | 59.48749 | 15769 ft | 315 kts | 83° |
| 2026-05-05 08:19 | 56.45948 | 59.52684 | 15473 ft | 313 kts | 83° |
| 2026-05-05 08:19 | 56.46143 | 59.56604 | 15178 ft | 312 kts | 83° |
| 2026-05-05 08:19 | 56.46336 | 59.60503 | 14885 ft | 311 kts | 83° |
| 2026-05-05 08:20 | 56.46526 | 59.64384 | 14592 ft | 309 kts | 83° |
| 2026-05-05 08:20 | 56.46714 | 59.68247 | 14300 ft | 308 kts | 83° |
| 2026-05-05 08:20 | 56.46900 | 59.72090 | 14009 ft | 306 kts | 83° |
| 2026-05-05 08:20 | 56.47084 | 59.75917 | 13717 ft | 305 kts | 83° |
| 2026-05-05 08:21 | 56.47266 | 59.79733 | 13427 ft | 304 kts | 83° |
| 2026-05-05 08:21 | 56.47445 | 59.83529 | 13136 ft | 302 kts | 83° |
| 2026-05-05 08:21 | 56.47623 | 59.87308 | 12846 ft | 301 kts | 83° |
| 2026-05-05 08:21 | 56.47799 | 59.91073 | 12556 ft | 300 kts | 83° |
| 2026-05-05 08:22 | 56.47973 | 59.94824 | 12266 ft | 298 kts | 83° |
| 2026-05-05 08:22 | 56.48145 | 59.98557 | 11977 ft | 297 kts | 83° |
| 2026-05-05 08:22 | 56.48316 | 60.02281 | 11686 ft | 296 kts | 83° |
| 2026-05-05 08:22 | 56.48484 | 60.05990 | 11395 ft | 296 kts | 83° |
| 2026-05-05 08:23 | 56.48652 | 60.09692 | 11104 ft | 295 kts | 84° |
| 2026-05-05 08:23 | 56.48818 | 60.13393 | 10818 ft | 294 kts | 84° |
| 2026-05-05 08:23 | 56.48980 | 60.17037 | 10554 ft | 289 kts | 84° |
| 2026-05-05 08:23 | 56.49139 | 60.20642 | 10232 ft | 286 kts | 84° |
| 2026-05-05 08:24 | 56.49295 | 60.24211 | 9989 ft | 282 kts | 84° |
| 2026-05-05 08:24 | 56.49445 | 60.27667 | 9909 ft | 271 kts | 84° |
| 2026-05-05 08:24 | 56.49591 | 60.31055 | 9826 ft | 269 kts | 84° |
| 2026-05-05 08:24 | 56.49736 | 60.34437 | 9619 ft | 269 kts | 84° |
| 2026-05-05 08:25 | 56.49879 | 60.37804 | 9352 ft | 268 kts | 84° |
| 2026-05-05 08:25 | 56.50022 | 60.41157 | 9085 ft | 267 kts | 84° |
| 2026-05-05 08:25 | 56.50165 | 60.44576 | 8923 ft | 277 kts | 84° |
| 2026-05-05 08:25 | 56.50304 | 60.48006 | 8772 ft | 278 kts | 84° |
| 2026-05-05 08:26 | 56.50454 | 60.51496 | 8512 ft | 277 kts | 84° |
| 2026-05-05 08:26 | 56.50608 | 60.54962 | 8289 ft | 276 kts | 84° |
| 2026-05-05 08:26 | 56.50766 | 60.58423 | 8070 ft | 275 kts | 83° |
| 2026-05-05 08:26 | 56.50924 | 60.61874 | 7852 ft | 275 kts | 83° |
| 2026-05-05 08:27 | 56.51082 | 60.65317 | 7634 ft | 274 kts | 83° |
| 2026-05-05 08:27 | 56.51237 | 60.68696 | 7508 ft | 262 kts | 84° |
| 2026-05-05 08:27 | 56.51384 | 60.71910 | 7371 ft | 250 kts | 84° |
| 2026-05-05 08:27 | 56.51519 | 60.75051 | 6988 ft | 250 kts | 84° |
| 2026-05-05 08:28 | 56.51658 | 60.78159 | 6666 ft | 246 kts | 84° |
| 2026-05-05 08:28 | 56.51795 | 60.81206 | 6452 ft | 240 kts | 84° |
| 2026-05-05 08:28 | 56.51931 | 60.84230 | 6274 ft | 241 kts | 84° |
| 2026-05-05 08:28 | 56.52066 | 60.87255 | 6105 ft | 241 kts | 84° |
| 2026-05-05 08:29 | 56.52199 | 60.90238 | 5943 ft | 240 kts | 84° |
| 2026-05-05 08:29 | 56.52333 | 60.93248 | 5780 ft | 240 kts | 84° |
| 2026-05-05 08:29 | 56.52466 | 60.96261 | 5619 ft | 240 kts | 84° |
| 2026-05-05 08:30 | 56.52729 | 61.02276 | 5295 ft | 239 kts | 84° |
| 2026-05-05 08:30 | 56.52860 | 61.05282 | 5132 ft | 239 kts | 84° |
| 2026-05-05 08:30 | 56.53071 | 61.08252 | 4960 ft | 237 kts | 72° |
| 2026-05-05 08:30 | 56.53905 | 61.10769 | 4741 ft | 234 kts | 44° |
| 2026-05-05 08:31 | 56.55276 | 61.12235 | 4547 ft | 229 kts | 15° |
| 2026-05-05 08:31 | 56.56855 | 61.12479 | 4403 ft | 228 kts | 360° |
| 2026-05-05 08:31 | 56.58443 | 61.12485 | 4234 ft | 227 kts | 359° |
| 2026-05-05 08:31 | 56.60025 | 61.12489 | 4077 ft | 227 kts | 359° |
| 2026-05-05 08:32 | 56.61603 | 61.12494 | 3926 ft | 227 kts | 359° |
| 2026-05-05 08:32 | 56.63181 | 61.12483 | 3771 ft | 226 kts | 357° |
| 2026-05-05 08:32 | 56.64748 | 61.12254 | 3573 ft | 226 kts | 352° |
| 2026-05-05 08:32 | 56.65770 | 61.11950 | 3401 ft | 224 kts | 348° |
| 2026-05-05 08:33 | 56.67300 | 61.11454 | 3228 ft | 223 kts | 348° |
| 2026-05-05 08:33 | 56.68804 | 61.10955 | 3102 ft | 212 kts | 348° |
| 2026-05-05 08:33 | 56.70669 | 61.10316 | 2911 ft | 202 kts | 346° |
| 2026-05-05 08:33 | 56.71949 | 61.09350 | 2738 ft | 199 kts | 324° |
| 2026-05-05 08:34 | 56.72566 | 61.08097 | 2709 ft | 193 kts | 302° |
| 2026-05-05 08:34 | 56.72986 | 61.05945 | 2703 ft | 173 kts | 285° |
| 2026-05-05 08:34 | 56.73179 | 61.03785 | 2696 ft | 173 kts | 278° |
| 2026-05-05 08:34 | 56.73291 | 61.01631 | 2524 ft | 171 kts | 276° |
| 2026-05-05 08:35 | 56.73375 | 60.99602 | 2321 ft | 153 kts | 275° |
| 2026-05-05 08:35 | 56.73450 | 60.97719 | 2147 ft | 146 kts | 275° |
| 2026-05-05 08:35 | 56.73523 | 60.95879 | 1992 ft | 146 kts | 275° |
| 2026-05-05 08:35 | 56.73595 | 60.94026 | 1838 ft | 146 kts | 276° |
| 2026-05-05 08:36 | 56.73673 | 60.92196 | 1680 ft | 145 kts | 276° |
| 2026-05-05 08:36 | 56.73742 | 60.90362 | 1525 ft | 145 kts | 275° |
| 2026-05-05 08:36 | 56.73814 | 60.88534 | 1367 ft | 144 kts | 275° |
| 2026-05-05 08:36 | 56.73884 | 60.86705 | 1212 ft | 145 kts | 275° |
| 2026-05-05 08:37 | 56.73956 | 60.84861 | 1051 ft | 146 kts | 275° |
| 2026-05-05 08:37 | 56.74029 | 60.83005 | 895 ft | 147 kts | 276° |
| 2026-05-05 08:37 | 56.74112 | 60.81184 | 785 ft | 139 kts | 266° |
| 2026-05-05 08:37 | 56.74153 | 60.79827 | 779 ft | 64 kts | 275° |
| 2026-05-05 08:38 | 56.74173 | 60.79336 | 779 ft | 33 kts | 275° |
| 2026-05-05 08:38 | 56.74205 | 60.79052 | 779 ft | 16 kts | 335° |
| 2026-05-05 08:38 | 56.74320 | 60.79070 | 779 ft | 18 kts | 8° |
| 2026-05-05 08:38 | 56.74455 | 60.79106 | 779 ft | 21 kts | 8° |
| 2026-05-05 08:39 | 56.74603 | 60.79133 | 779 ft | 22 kts | 1° |
| 2026-05-05 08:39 | 56.74767 | 60.79137 | 779 ft | 24 kts | 359° |
| 2026-05-05 08:39 | 56.74867 | 60.79207 | 779 ft | 16 kts | 81° |
| 2026-05-05 08:39 | 56.74869 | 60.79417 | 779 ft | 18 kts | 90° |
| 2026-05-05 08:40 | 56.74860 | 60.79634 | 779 ft | 17 kts | 99° |
| 2026-05-05 08:40 | 56.74903 | 60.79772 | 779 ft | 14 kts | 2° |
| 2026-05-05 08:40 | 56.74931 | 60.79773 | 779 ft | 0 kts | 360° |
| 2026-05-05 08:40 | 56.74932 | 60.79773 | 779 ft | 0 kts | 360° |